Pelagia — PGRQ — position and weather

sailwx.info

Track history (hours):
 
Tides and Currents Weather Stations Pressure Air Temp Water Temp Dewpoint Dewpoint Depression Visibility Wind Speed Wind Dir Waves Ship Positions

Oceanographic research ship Pelagia (Netherlands)

Detailed information on ship capabilities available from University of Delaware's Ocean Information Center and ARCUS's ALIAS (Arctic Logistics Information and Support) project.

Last reported at 2019-Feb-23 19:00 UTC. Time now 2019-Feb-23 22:51 UTC.
Position S 17°18' E 011°30'.

Length 66 m; beam 13 m.

Type: Dredging. MMSI: 244925000.

Barometer 1010.1 mb

Date/timePositionNaut miles runAvg speedWind from/ knotsBaromVisibWave heightAir tempDewpointWater temp
2019-Feb-23 19:00S 17°18' E 011°30'6 5.7 1010.1
2019-Feb-23 18:00S 17°18' E 011°24'6 6.0 1009.6
2019-Feb-23 17:00S 17°24' E 011°24'0 0.0 1008.7
2019-Feb-23 15:00S 17°24' E 011°24'6 2.9 1008.7
2019-Feb-23 13:00S 17°24' E 011°30'0 0.0 1010.4
2019-Feb-23 12:00S 17°24' E 011°30'0 0.0 1011.5
2019-Feb-23 11:00S 17°24' E 011°30'0 0.0 1012.5
2019-Feb-23 10:00S 17°24' E 011°30'0 0.0 1013.2
2019-Feb-23 09:00S 17°24' E 011°30'0 0.0 1013.2
2019-Feb-23 08:00S 17°24' E 011°30'0 0.0 1013.2
2019-Feb-23 07:00S 17°24' E 011°30'0 0.0 1012.9
2019-Feb-23 06:00S 17°24' E 011°30'6 6.0 1013.0
2019-Feb-23 05:00S 17°18' E 011°30'0 0.0 1012.7
2019-Feb-23 04:00S 17°18' E 011°30'0 0.0 1012.8
2019-Feb-23 03:00S 17°18' E 011°30'0 0.0 1013.0
2019-Feb-23 00:00S 17°18' E 011°30'0 0.0 1014.5
2019-Feb-22 23:00S 17°18' E 011°30'6 5.7 1015.2
2019-Feb-22 22:00S 17°18' E 011°24'0 0.0 1016.2
2019-Feb-22 21:00S 17°18' E 011°24'0 0.0 1015.7
2019-Feb-22 19:00S 17°18' E 011°24'0 0.0 1014.2
2019-Feb-22 18:00S 17°18' E 011°24'0 0.0 1013.4
2019-Feb-22 17:00S 17°18' E 011°24'0 0.0 1012.4
2019-Feb-22 16:00S 17°18' E 011°24'0 0.0 1011.6
2019-Feb-22 15:00S 17°18' E 011°24'0 0.0 1011.9
2019-Feb-22 14:00S 17°18' E 011°24'8 8.3 1011.8
2019-Feb-22 13:00S 17°24' E 011°18'0 0.0 1012.7
2019-Feb-22 12:00S 17°24' E 011°18'0 0.0 1013.7
2019-Feb-22 11:00S 17°24' E 011°18'0 0.0 1014.4
2019-Feb-22 10:00S 17°24' E 011°18'0 0.0 1014.8
2019-Feb-22 09:00S 17°24' E 011°18'0 0.0 1015.1
2019-Feb-22 08:00S 17°24' E 011°18'0 0.0 1014.8
2019-Feb-22 07:00S 17°24' E 011°18'0 0.0 1014.5
2019-Feb-22 06:00S 17°24' E 011°18'0 0.0 1014.2
2019-Feb-22 05:00S 17°24' E 011°18'6 2.9 1013.6
2019-Feb-22 03:00S 17°24' E 011°12'6 5.7 1013.5
2019-Feb-22 02:00S 17°24' E 011°18'6 6.0 1013.5
2019-Feb-22 01:00S 17°30' E 011°18'6 6.0 1013.6
2019-Feb-22 00:00S 17°36' E 011°18'6 5.7 1013.6
2019-Feb-21 23:00S 17°36' E 011°24'6 6.0 1013.7
2019-Feb-21 22:00S 17°42' E 011°24'0 0.0 1013.8
2019-Feb-21 21:00S 17°42' E 011°24'13 6.6 1013.1
2019-Feb-21 19:00S 17°30' E 011°18'6 6.0 1011.5
2019-Feb-21 18:00S 17°24' E 011°18'8 8.3 1010.9
2019-Feb-21 17:00S 17°18' E 011°24'0 0.0 1010.2
2019-Feb-21 16:00S 17°18' E 011°24'0 0.0 1009.8
2019-Feb-21 15:00S 17°18' E 011°24'6 6.0 1009.4
2019-Feb-21 14:00S 17°24' E 011°24'0 0.0 1009.9
2019-Feb-21 13:00S 17°24' E 011°24'6 6.0 1010.5
2019-Feb-21 12:00S 17°18' E 011°24'0 0.0 1011.2
2019-Feb-21 11:00S 17°18' E 011°24'0 0.0 1012.1
2019-Feb-21 10:00S 17°18' E 011°24'0 0.0 1012.9
2019-Feb-21 09:00S 17°18' E 011°24'0 0.0 1013.6
2019-Feb-21 08:00S 17°18' E 011°24'0 0.0 1013.7
2019-Feb-21 07:00S 17°18' E 011°24'6 6.0 1013.7
2019-Feb-21 06:00S 17°24' E 011°24'8 1.0 1013.2
2019-Feb-20 22:00S 17°30' E 011°18'6 6.0 1012.2
2019-Feb-20 21:00S 17°36' E 011°18'6 6.0 1011.9
2019-Feb-20 20:00S 17°30' E 011°18'8 8.3 1011.2
2019-Feb-20 19:00S 17°24' E 011°24'0 0.0 1010.4
2019-Feb-20 16:00S 17°24' E 011°24'0 0.0 1008.9
2019-Feb-20 15:00S 17°24' E 011°24'0 0.0 1009.1
2019-Feb-20 14:00S 17°24' E 011°24'6 5.7 1009.8
2019-Feb-20 13:00S 17°24' E 011°30'6 5.7 1010.4
2019-Feb-20 12:00S 17°24' E 011°36'0 0.0 1011.0
2019-Feb-20 11:00S 17°24' E 011°36'6 5.7 1012.2
2019-Feb-20 10:00S 17°24' E 011°30'6 5.7 1012.8
2019-Feb-20 09:00S 17°24' E 011°24'0 0.0 1013.0
2019-Feb-20 08:00S 17°24' E 011°24'6 6.0 1013.0
2019-Feb-20 07:00S 17°30' E 011°24'0 0.0 1012.7
2019-Feb-20 06:00S 17°30' E 011°24'12 6.0 1012.0
2019-Feb-20 04:00S 17°18' E 011°24'6 6.0 1010.5
2019-Feb-20 03:00S 17°24' E 011°24'6 6.0 1010.0
2019-Feb-20 02:00S 17°30' E 011°24'6 6.0 1009.9
2019-Feb-20 01:00S 17°24' E 011°24'6 6.0 1009.9
2019-Feb-20 00:00S 17°18' E 011°24'6 6.0 1010.6
2019-Feb-19 23:00S 17°24' E 011°24'6 6.0 1011.0
2019-Feb-19 22:00S 17°30' E 011°24'0 0.0 1011.0
2019-Feb-19 21:00S 17°30' E 011°24'6 6.0 1010.7
2019-Feb-19 20:00S 17°24' E 011°24'6 6.0 1010.3
2019-Feb-19 19:00S 17°18' E 011°24'6 6.0 1009.4
2019-Feb-19 18:00S 17°24' E 011°24'0 0.0 1009.0
2019-Feb-19 17:00S 17°24' E 011°24'6 6.0 1008.2
2019-Feb-19 16:00S 17°30' E 011°24'13 4.3 1008.1
2019-Feb-19 13:00S 17°24' E 011°36'0 0.0 1008.9
2019-Feb-19 12:00S 17°24' E 011°36'0 0.0 1009.1
2019-Feb-19 08:00S 17°24' E 011°36'0 0.0 1011.7
2019-Feb-19 07:00S 17°24' E 011°36'0 0.0 1011.3
2019-Feb-19 06:00S 17°24' E 011°36'6 5.7 1011.1
2019-Feb-19 05:00S 17°24' E 011°30'6 5.7 1010.1
2019-Feb-19 04:00S 17°24' E 011°24'0 0.0 1009.9
2019-Feb-19 03:00S 17°24' E 011°24'0 0.0 1009.6
2019-Feb-19 02:00S 17°24' E 011°24'0 0.0 1009.8
2019-Feb-19 01:00S 17°24' E 011°24'0 0.0 1009.7
2019-Feb-19 00:00S 17°24' E 011°24'1313.3 1010.6
2019-Feb-18 23:00S 17°36' E 011°18'6 6.0 1011.2
2019-Feb-18 22:00S 17°42' E 011°18'1313.3 1012.0
2019-Feb-18 21:00S 17°54' E 011°12'6 6.0 1012.1
2019-Feb-18 20:00S 18°00' E 011°12'6 6.0 1011.8
2019-Feb-18 19:00S 18°06' E 011°12'1313.3 1011.2
2019-Feb-18 18:00S 18°18' E 011°06'6 6.0 1010.2
2019-Feb-18 17:00S 18°24' E 011°06'1313.3 1009.9
2019-Feb-18 16:00S 18°36' E 011°00'6 6.0 1009.9
2019-Feb-18 15:00S 18°42' E 011°00'8 8.3 1010.1
2019-Feb-18 14:00S 18°48' E 010°54'6 2.0 1010.3
2019-Feb-18 11:00S 18°54' E 010°54'0 0.0 1013.3
2019-Feb-18 09:00S 18°54' E 010°54'8 8.3 1014.6
2019-Feb-18 08:00S 18°48' E 011°00'6 5.7 1014.6
2019-Feb-18 07:00S 18°48' E 011°06'0 0.0 1014.4
2019-Feb-18 06:00S 18°48' E 011°06'21 7.1 1014.3
2019-Feb-18 03:00S 19°06' E 010°54'1212.0 1014.0
2019-Feb-18 02:00S 19°18' E 010°54'8 8.2 1014.3
2019-Feb-18 01:00S 19°24' E 010°48'8 8.2 1014.8
2019-Feb-18 00:00S 19°30' E 010°42'1212.0 1015.0
2019-Feb-17 23:00S 19°42' E 010°42'8 8.2 1015.6
2019-Feb-17 22:00S 19°48' E 010°36'8 8.2 1015.9
2019-Feb-17 21:00S 19°54' E 010°30'6 6.0 1016.2
2019-Feb-17 20:00S 20°00' E 010°30'2110.6 1016.0
2019-Feb-17 18:00S 20°18' E 010°18'0 0.0 1014.2
2019-Feb-17 17:00S 20°18' E 010°18'0 0.0 1013.5
2019-Feb-17 16:00S 20°18' E 010°18'0 0.0 1013.2
2019-Feb-17 15:00S 20°18' E 010°18'0 0.0 1013.8
2019-Feb-17 14:00S 20°18' E 010°18'0 0.0 1014.2
2019-Feb-17 13:00S 20°18' E 010°18'0 0.0 1014.9
2019-Feb-17 12:00S 20°18' E 010°18'0 0.0 1015.7
2019-Feb-17 11:00S 20°18' E 010°18'0 0.0 1016.3
2019-Feb-17 10:00S 20°18' E 010°18'0 0.0 1016.5
2019-Feb-17 09:00S 20°18' E 010°18'0 0.0 1016.9
2019-Feb-17 08:00S 20°18' E 010°18'17 8.4 1017.1
2019-Feb-17 06:00S 20°18' E 010°36'1312.8 1016.6
2019-Feb-17 05:00S 20°12' E 010°48'17 8.4 1016.2
2019-Feb-17 03:00S 20°12' E 011°06'1111.3 1015.6
2019-Feb-17 02:00S 20°12' E 011°18'8 8.2 1015.6
2019-Feb-17 01:00S 20°06' E 011°24'1111.3 1015.8
2019-Feb-17 00:00S 20°06' E 011°36'6 5.6 1016.2
2019-Feb-16 23:00S 20°06' E 011°42'1111.3 1016.7
2019-Feb-16 22:00S 20°06' E 011°54'6 5.6 1016.9
2019-Feb-16 21:00S 20°06' E 012°00'1111.3 1016.8
2019-Feb-16 20:00S 20°06' E 012°12'6 5.6 1016.6
2019-Feb-16 19:00S 20°06' E 012°18'1312.8 1015.9
2019-Feb-16 18:00S 20°12' E 012°30'8 8.2 1015.3
2019-Feb-16 17:00S 20°18' E 012°36'6 6.0 1014.4
2019-Feb-16 16:00S 20°24' E 012°36'8 4.1 1014.3
2019-Feb-16 14:00S 20°30' E 012°42'8 8.2 1014.0
2019-Feb-16 13:00S 20°36' E 012°48'1212.0 1014.7
2019-Feb-16 12:00S 20°48' E 012°48'8 8.2 1015.3
2019-Feb-16 11:00S 20°54' E 012°54'6 6.0 1016.0
2019-Feb-16 10:00S 21°00' E 012°54'6 5.6 1016.6
2019-Feb-16 09:00S 21°00' E 013°00'6 6.0 1016.6
2019-Feb-16 08:00S 21°06' E 013°00'116 9.6 1016.5
2019-Feb-15 20:00S 22°36' E 014°18'16 8.2 1015.9
2019-Feb-15 18:00S 22°48' E 014°30'12 6.0 1014.7
2019-Feb-15 16:00S 23°00' E 014°30'0 0.0 1013.4
2019-Feb-15 15:00S 23°00' E 014°30'0 0.0 1013.6
2019-Feb-15 14:00S 23°00' E 014°30'0 0.0 1014.3
2019-Feb-15 13:00S 23°00' E 014°30'0 0.0 1014.7
2019-Feb-15 11:00S 23°00' E 014°30'0 0.0 1015.9
2019-Feb-15 10:00S 23°00' E 014°30'0 0.0 1016.2
2019-Feb-15 09:00S 23°00' E 014°30'0 0.0 1016.5
2019-Feb-15 08:00S 23°00' E 014°30'0 0.0 1016.7
2019-Feb-15 07:00S 23°00' E 014°30'0 0.0 1016.5
2019-Feb-15 00:00S 23°00' E 014°30'0 0.0 1015.0
2019-Feb-14 23:00S 23°00' E 014°30'0 0.0 1015.6
2019-Feb-14 22:00S 23°00' E 014°30'0 0.0 1016.0
2019-Feb-14 21:00S 23°00' E 014°30'0 0.0 1016.3
2019-Feb-14 20:00S 23°00' E 014°30'0 0.0 1016.1
2019-Feb-14 19:00S 23°00' E 014°30'0 0.0 1015.7
2019-Feb-14 18:00S 23°00' E 014°30'0 0.0 1014.9
2019-Feb-14 17:00S 23°00' E 014°30'0 0.0 1014.4
2019-Feb-14 16:00S 23°00' E 014°30'0 0.0 1013.4
2019-Feb-14 15:00S 23°00' E 014°30'0 0.0 1013.4
2019-Feb-14 14:00S 23°00' E 014°30'0 0.0 1013.5
2019-Feb-14 13:00S 23°00' E 014°30'0 0.0 1014.0
2019-Feb-14 12:00S 23°00' E 014°30'0 0.0 1014.6
2019-Feb-14 11:00S 23°00' E 014°30'0 0.0 1015.4
2019-Feb-14 10:00S 23°00' E 014°30'0 0.0 1015.8
2019-Feb-14 08:00S 23°00' E 014°30'0 0.0 1016.5
2019-Feb-14 07:00S 23°00' E 014°30'0 0.0 1016.2
2019-Feb-14 06:00S 23°00' E 014°30'0 0.0 1015.9
2019-Feb-14 05:00S 23°00' E 014°30'0 0.0 1015.2
2019-Feb-14 04:00S 23°00' E 014°30'0 0.0 1014.5
2019-Feb-14 03:00S 23°00' E 014°30'0 0.0 1014.7
2019-Feb-14 01:00S 23°00' E 014°30'0 0.0 1014.4
2019-Feb-14 00:00S 23°00' E 014°30'0 0.0 1014.9
2019-Feb-13 23:00S 23°00' E 014°30'0 0.0 1015.1
2019-Feb-13 22:00S 23°00' E 014°30'0 0.0 1015.1
2019-Feb-13 21:00S 23°00' E 014°30'0 0.0 1015.2
2019-Feb-13 20:00S 23°00' E 014°30'0 0.0 1015.1
2019-Feb-13 19:00S 23°00' E 014°30'   1014.3
Track history (hours):
 
Tides and Currents Weather Stations Pressure Air Temp Water Temp Dewpoint Dewpoint Depression Visibility Wind Speed Wind Dir Waves Ship Positions

Oceanographic research ship Pelagia (Netherlands)

Detailed information on ship capabilities available from University of Delaware's Ocean Information Center and ARCUS's ALIAS (Arctic Logistics Information and Support) project.

Last reported at 2019-Feb-23 19:00 UTC. Time now 2019-Feb-23 22:51 UTC.
Position S 17°18' E 011°30'.

Length 66 m; beam 13 m.

Type: Dredging. MMSI: 244925000.

Barometer 1010.1 mb

Date/timePositionNaut miles runAvg speedWind from/ knotsBaromVisibWave heightAir tempDewpointWater temp
2019-Feb-23 19:00S 17°18' E 011°30'6 5.7 1010.1
2019-Feb-23 18:00S 17°18' E 011°24'6 6.0 1009.6
2019-Feb-23 17:00S 17°24' E 011°24'0 0.0 1008.7
2019-Feb-23 15:00S 17°24' E 011°24'6 2.9 1008.7
2019-Feb-23 13:00S 17°24' E 011°30'0 0.0 1010.4
2019-Feb-23 12:00S 17°24' E 011°30'0 0.0 1011.5
2019-Feb-23 11:00S 17°24' E 011°30'0 0.0 1012.5
2019-Feb-23 10:00S 17°24' E 011°30'0 0.0 1013.2
2019-Feb-23 09:00S 17°24' E 011°30'0 0.0 1013.2
2019-Feb-23 08:00S 17°24' E 011°30'0 0.0 1013.2
2019-Feb-23 07:00S 17°24' E 011°30'0 0.0 1012.9
2019-Feb-23 06:00S 17°24' E 011°30'6 6.0 1013.0
2019-Feb-23 05:00S 17°18' E 011°30'0 0.0 1012.7
2019-Feb-23 04:00S 17°18' E 011°30'0 0.0 1012.8
2019-Feb-23 03:00S 17°18' E 011°30'0 0.0 1013.0
2019-Feb-23 00:00S 17°18' E 011°30'0 0.0 1014.5
2019-Feb-22 23:00S 17°18' E 011°30'6 5.7 1015.2
2019-Feb-22 22:00S 17°18' E 011°24'0 0.0 1016.2
2019-Feb-22 21:00S 17°18' E 011°24'0 0.0 1015.7
2019-Feb-22 19:00S 17°18' E 011°24'0 0.0 1014.2
2019-Feb-22 18:00S 17°18' E 011°24'0 0.0 1013.4
2019-Feb-22 17:00S 17°18' E 011°24'0 0.0 1012.4
2019-Feb-22 16:00S 17°18' E 011°24'0 0.0 1011.6
2019-Feb-22 15:00S 17°18' E 011°24'0 0.0 1011.9
2019-Feb-22 14:00S 17°18' E 011°24'8 8.3 1011.8
2019-Feb-22 13:00S 17°24' E 011°18'0 0.0 1012.7
2019-Feb-22 12:00S 17°24' E 011°18'0 0.0 1013.7
2019-Feb-22 11:00S 17°24' E 011°18'0 0.0 1014.4
2019-Feb-22 10:00S 17°24' E 011°18'0 0.0 1014.8
2019-Feb-22 09:00S 17°24' E 011°18'0 0.0 1015.1
2019-Feb-22 08:00S 17°24' E 011°18'0 0.0 1014.8
2019-Feb-22 07:00S 17°24' E 011°18'0 0.0 1014.5
2019-Feb-22 06:00S 17°24' E 011°18'0 0.0 1014.2
2019-Feb-22 05:00S 17°24' E 011°18'6 2.9 1013.6
2019-Feb-22 03:00S 17°24' E 011°12'6 5.7 1013.5
2019-Feb-22 02:00S 17°24' E 011°18'6 6.0 1013.5
2019-Feb-22 01:00S 17°30' E 011°18'6 6.0 1013.6
2019-Feb-22 00:00S 17°36' E 011°18'6 5.7 1013.6
2019-Feb-21 23:00S 17°36' E 011°24'6 6.0 1013.7
2019-Feb-21 22:00S 17°42' E 011°24'0 0.0 1013.8
2019-Feb-21 21:00S 17°42' E 011°24'13 6.6 1013.1
2019-Feb-21 19:00S 17°30' E 011°18'6 6.0 1011.5
2019-Feb-21 18:00S 17°24' E 011°18'8 8.3 1010.9
2019-Feb-21 17:00S 17°18' E 011°24'0 0.0 1010.2
2019-Feb-21 16:00S 17°18' E 011°24'0 0.0 1009.8
2019-Feb-21 15:00S 17°18' E 011°24'6 6.0 1009.4
2019-Feb-21 14:00S 17°24' E 011°24'0 0.0 1009.9
2019-Feb-21 13:00S 17°24' E 011°24'6 6.0 1010.5
2019-Feb-21 12:00S 17°18' E 011°24'0 0.0 1011.2
2019-Feb-21 11:00S 17°18' E 011°24'0 0.0 1012.1
2019-Feb-21 10:00S 17°18' E 011°24'0 0.0 1012.9
2019-Feb-21 09:00S 17°18' E 011°24'0 0.0 1013.6
2019-Feb-21 08:00S 17°18' E 011°24'0 0.0 1013.7
2019-Feb-21 07:00S 17°18' E 011°24'6 6.0 1013.7
2019-Feb-21 06:00S 17°24' E 011°24'8 1.0 1013.2
2019-Feb-20 22:00S 17°30' E 011°18'6 6.0 1012.2
2019-Feb-20 21:00S 17°36' E 011°18'6 6.0 1011.9
2019-Feb-20 20:00S 17°30' E 011°18'8 8.3 1011.2
2019-Feb-20 19:00S 17°24' E 011°24'0 0.0 1010.4
2019-Feb-20 16:00S 17°24' E 011°24'0 0.0 1008.9
2019-Feb-20 15:00S 17°24' E 011°24'0 0.0 1009.1
2019-Feb-20 14:00S 17°24' E 011°24'6 5.7 1009.8
2019-Feb-20 13:00S 17°24' E 011°30'6 5.7 1010.4
2019-Feb-20 12:00S 17°24' E 011°36'0 0.0 1011.0
2019-Feb-20 11:00S 17°24' E 011°36'6 5.7 1012.2
2019-Feb-20 10:00S 17°24' E 011°30'6 5.7 1012.8
2019-Feb-20 09:00S 17°24' E 011°24'0 0.0 1013.0
2019-Feb-20 08:00S 17°24' E 011°24'6 6.0 1013.0
2019-Feb-20 07:00S 17°30' E 011°24'0 0.0 1012.7
2019-Feb-20 06:00S 17°30' E 011°24'12 6.0 1012.0
2019-Feb-20 04:00S 17°18' E 011°24'6 6.0 1010.5
2019-Feb-20 03:00S 17°24' E 011°24'6 6.0 1010.0
2019-Feb-20 02:00S 17°30' E 011°24'6 6.0 1009.9
2019-Feb-20 01:00S 17°24' E 011°24'6 6.0 1009.9
2019-Feb-20 00:00S 17°18' E 011°24'6 6.0 1010.6
2019-Feb-19 23:00S 17°24' E 011°24'6 6.0 1011.0
2019-Feb-19 22:00S 17°30' E 011°24'0 0.0 1011.0
2019-Feb-19 21:00S 17°30' E 011°24'6 6.0 1010.7
2019-Feb-19 20:00S 17°24' E 011°24'6 6.0 1010.3
2019-Feb-19 19:00S 17°18' E 011°24'6 6.0 1009.4
2019-Feb-19 18:00S 17°24' E 011°24'0 0.0 1009.0
2019-Feb-19 17:00S 17°24' E 011°24'6 6.0 1008.2
2019-Feb-19 16:00S 17°30' E 011°24'13 4.3 1008.1
2019-Feb-19 13:00S 17°24' E 011°36'0 0.0 1008.9
2019-Feb-19 12:00S 17°24' E 011°36'0 0.0 1009.1
2019-Feb-19 08:00S 17°24' E 011°36'0 0.0 1011.7
2019-Feb-19 07:00S 17°24' E 011°36'0 0.0 1011.3
2019-Feb-19 06:00S 17°24' E 011°36'6 5.7 1011.1
2019-Feb-19 05:00S 17°24' E 011°30'6 5.7 1010.1
2019-Feb-19 04:00S 17°24' E 011°24'0 0.0 1009.9
2019-Feb-19 03:00S 17°24' E 011°24'0 0.0 1009.6
2019-Feb-19 02:00S 17°24' E 011°24'0 0.0 1009.8
2019-Feb-19 01:00S 17°24' E 011°24'0 0.0 1009.7
2019-Feb-19 00:00S 17°24' E 011°24'1313.3 1010.6
2019-Feb-18 23:00S 17°36' E 011°18'6 6.0 1011.2
2019-Feb-18 22:00S 17°42' E 011°18'1313.3 1012.0
2019-Feb-18 21:00S 17°54' E 011°12'6 6.0 1012.1
2019-Feb-18 20:00S 18°00' E 011°12'6 6.0 1011.8
2019-Feb-18 19:00S 18°06' E 011°12'1313.3 1011.2
2019-Feb-18 18:00S 18°18' E 011°06'6 6.0 1010.2
2019-Feb-18 17:00S 18°24' E 011°06'1313.3 1009.9
2019-Feb-18 16:00S 18°36' E 011°00'6 6.0 1009.9
2019-Feb-18 15:00S 18°42' E 011°00'8 8.3 1010.1
2019-Feb-18 14:00S 18°48' E 010°54'6 2.0 1010.3
2019-Feb-18 11:00S 18°54' E 010°54'0 0.0 1013.3
2019-Feb-18 09:00S 18°54' E 010°54'8 8.3 1014.6
2019-Feb-18 08:00S 18°48' E 011°00'6 5.7 1014.6
2019-Feb-18 07:00S 18°48' E 011°06'0 0.0 1014.4
2019-Feb-18 06:00S 18°48' E 011°06'21 7.1 1014.3
2019-Feb-18 03:00S 19°06' E 010°54'1212.0 1014.0
2019-Feb-18 02:00S 19°18' E 010°54'8 8.2 1014.3
2019-Feb-18 01:00S 19°24' E 010°48'8 8.2 1014.8
2019-Feb-18 00:00S 19°30' E 010°42'1212.0 1015.0
2019-Feb-17 23:00S 19°42' E 010°42'8 8.2 1015.6
2019-Feb-17 22:00S 19°48' E 010°36'8 8.2 1015.9
2019-Feb-17 21:00S 19°54' E 010°30'6 6.0 1016.2
2019-Feb-17 20:00S 20°00' E 010°30'2110.6 1016.0
2019-Feb-17 18:00S 20°18' E 010°18'0 0.0 1014.2
2019-Feb-17 17:00S 20°18' E 010°18'0 0.0 1013.5
2019-Feb-17 16:00S 20°18' E 010°18'0 0.0 1013.2
2019-Feb-17 15:00S 20°18' E 010°18'0 0.0 1013.8
2019-Feb-17 14:00S 20°18' E 010°18'0 0.0 1014.2
2019-Feb-17 13:00S 20°18' E 010°18'0 0.0 1014.9
2019-Feb-17 12:00S 20°18' E 010°18'0 0.0 1015.7
2019-Feb-17 11:00S 20°18' E 010°18'0 0.0 1016.3
2019-Feb-17 10:00S 20°18' E 010°18'0 0.0 1016.5
2019-Feb-17 09:00S 20°18' E 010°18'0 0.0 1016.9
2019-Feb-17 08:00S 20°18' E 010°18'17 8.4 1017.1
2019-Feb-17 06:00S 20°18' E 010°36'1312.8 1016.6
2019-Feb-17 05:00S 20°12' E 010°48'17 8.4 1016.2
2019-Feb-17 03:00S 20°12' E 011°06'1111.3 1015.6
2019-Feb-17 02:00S 20°12' E 011°18'8 8.2 1015.6
2019-Feb-17 01:00S 20°06' E 011°24'1111.3 1015.8
2019-Feb-17 00:00S 20°06' E 011°36'6 5.6 1016.2
2019-Feb-16 23:00S 20°06' E 011°42'1111.3 1016.7
2019-Feb-16 22:00S 20°06' E 011°54'6 5.6 1016.9
2019-Feb-16 21:00S 20°06' E 012°00'1111.3 1016.8
2019-Feb-16 20:00S 20°06' E 012°12'6 5.6 1016.6
2019-Feb-16 19:00S 20°06' E 012°18'1312.8 1015.9
2019-Feb-16 18:00S 20°12' E 012°30'8 8.2 1015.3
2019-Feb-16 17:00S 20°18' E 012°36'6 6.0 1014.4
2019-Feb-16 16:00S 20°24' E 012°36'8 4.1 1014.3
2019-Feb-16 14:00S 20°30' E 012°42'8 8.2 1014.0
2019-Feb-16 13:00S 20°36' E 012°48'1212.0 1014.7
2019-Feb-16 12:00S 20°48' E 012°48'8 8.2 1015.3
2019-Feb-16 11:00S 20°54' E 012°54'6 6.0 1016.0
2019-Feb-16 10:00S 21°00' E 012°54'6 5.6 1016.6
2019-Feb-16 09:00S 21°00' E 013°00'6 6.0 1016.6
2019-Feb-16 08:00S 21°06' E 013°00'116 9.6 1016.5
2019-Feb-15 20:00S 22°36' E 014°18'16 8.2 1015.9
2019-Feb-15 18:00S 22°48' E 014°30'12 6.0 1014.7
2019-Feb-15 16:00S 23°00' E 014°30'0 0.0 1013.4
2019-Feb-15 15:00S 23°00' E 014°30'0 0.0 1013.6
2019-Feb-15 14:00S 23°00' E 014°30'0 0.0 1014.3
2019-Feb-15 13:00S 23°00' E 014°30'0 0.0 1014.7
2019-Feb-15 11:00S 23°00' E 014°30'0 0.0 1015.9
2019-Feb-15 10:00S 23°00' E 014°30'0 0.0 1016.2
2019-Feb-15 09:00S 23°00' E 014°30'0 0.0 1016.5
2019-Feb-15 08:00S 23°00' E 014°30'0 0.0 1016.7
2019-Feb-15 07:00S 23°00' E 014°30'0 0.0 1016.5
2019-Feb-15 00:00S 23°00' E 014°30'0 0.0 1015.0
2019-Feb-14 23:00S 23°00' E 014°30'0 0.0 1015.6
2019-Feb-14 22:00S 23°00' E 014°30'0 0.0 1016.0
2019-Feb-14 21:00S 23°00' E 014°30'0 0.0 1016.3
2019-Feb-14 20:00S 23°00' E 014°30'0 0.0 1016.1
2019-Feb-14 19:00S 23°00' E 014°30'0 0.0 1015.7
2019-Feb-14 18:00S 23°00' E 014°30'0 0.0 1014.9
2019-Feb-14 17:00S 23°00' E 014°30'0 0.0 1014.4
2019-Feb-14 16:00S 23°00' E 014°30'0 0.0 1013.4
2019-Feb-14 15:00S 23°00' E 014°30'0 0.0 1013.4
2019-Feb-14 14:00S 23°00' E 014°30'0 0.0 1013.5
2019-Feb-14 13:00S 23°00' E 014°30'0 0.0 1014.0
2019-Feb-14 12:00S 23°00' E 014°30'0 0.0 1014.6
2019-Feb-14 11:00S 23°00' E 014°30'0 0.0 1015.4
2019-Feb-14 10:00S 23°00' E 014°30'0 0.0 1015.8
2019-Feb-14 08:00S 23°00' E 014°30'0 0.0 1016.5
2019-Feb-14 07:00S 23°00' E 014°30'0 0.0 1016.2
2019-Feb-14 06:00S 23°00' E 014°30'0 0.0 1015.9
2019-Feb-14 05:00S 23°00' E 014°30'0 0.0 1015.2
2019-Feb-14 04:00S 23°00' E 014°30'0 0.0 1014.5
2019-Feb-14 03:00S 23°00' E 014°30'0 0.0 1014.7
2019-Feb-14 01:00S 23°00' E 014°30'0 0.0 1014.4
2019-Feb-14 00:00S 23°00' E 014°30'0 0.0 1014.9
2019-Feb-13 23:00S 23°00' E 014°30'0 0.0 1015.1
2019-Feb-13 22:00S 23°00' E 014°30'0 0.0 1015.1
2019-Feb-13 21:00S 23°00' E 014°30'0 0.0 1015.2
2019-Feb-13 20:00S 23°00' E 014°30'0 0.0 1015.1
2019-Feb-13 19:00S 23°00' E 014°30'   1014.3

Dump ship's entire track history